Terminal Aerodrome Forecast
Issued by NWS

Home | Current Version | Previous Version | Text Only | Print | Product List | Glossary Off
Versions: 1 2 3 4 5 6 7 8 9 10 11 12 13 14

000
FTUS45 KGGW 220520
TAFGDV
TAF
KGDV 220520Z 2206/2306 30011KT P6SM VCSH BKN110
     FM221000 30008KT P6SM VCSH BKN090
     FM221800 36015G23KT P6SM VCSH SCT050
     FM230300 35009KT P6SM SCT080=

USA.gov is the U.S. government's official web portal to all federal, state and local government web resources and services.